sensor_id;sensor_type;location;lat;lon;timestamp;P1;durP1;ratioP1;P2;durP2;ratioP2
64313;SDS011;50650;48.180;11.524;2022-11-09T00:01:34;1.70;;;1.13;;
64313;SDS011;50650;48.180;11.524;2022-11-09T00:04:02;2.30;;;1.10;;
64313;SDS011;50650;48.180;11.524;2022-11-09T00:06:30;3.67;;;1.40;;
64313;SDS011;50650;48.180;11.524;2022-11-09T00:08:57;2.22;;;1.10;;
64313;SDS011;50650;48.180;11.524;2022-11-09T00:11:25;1.90;;;1.00;;
64313;SDS011;50650;48.180;11.524;2022-11-09T00:13:52;2.42;;;1.20;;
64313;SDS011;50650;48.180;11.524;2022-11-09T00:16:19;2.20;;;1.27;;
64313;SDS011;50650;48.180;11.524;2022-11-09T00:18:46;1.90;;;1.02;;
64313;SDS011;50650;48.180;11.524;2022-11-09T00:21:14;2.10;;;1.25;;
64313;SDS011;50650;48.180;11.524;2022-11-09T00:23:43;2.97;;;1.38;;
64313;SDS011;50650;48.180;11.524;2022-11-09T00:26:12;2.08;;;1.20;;
64313;SDS011;50650;48.180;11.524;2022-11-09T00:28:39;2.78;;;1.48;;
64313;SDS011;50650;48.180;11.524;2022-11-09T00:31:06;4.45;;;1.42;;
64313;SDS011;50650;48.180;11.524;2022-11-09T00:33:34;3.03;;;1.20;;
64313;SDS011;50650;48.180;11.524;2022-11-09T00:36:02;2.30;;;1.45;;
64313;SDS011;50650;48.180;11.524;2022-11-09T00:38:31;2.92;;;1.50;;
64313;SDS011;50650;48.180;11.524;2022-11-09T00:41:00;4.97;;;1.70;;
64313;SDS011;50650;48.180;11.524;2022-11-09T00:43:27;2.78;;;1.65;;
64313;SDS011;50650;48.180;11.524;2022-11-09T00:45:53;7.97;;;1.70;;
64313;SDS011;50650;48.180;11.524;2022-11-09T00:48:20;3.83;;;1.27;;
64313;SDS011;50650;48.180;11.524;2022-11-09T00:50:48;4.65;;;1.60;;
64313;SDS011;50650;48.180;11.524;2022-11-09T00:53:15;3.95;;;1.80;;
64313;SDS011;50650;48.180;11.524;2022-11-09T00:55:41;3.72;;;1.42;;
64313;SDS011;50650;48.180;11.524;2022-11-09T00:58:09;3.15;;;1.35;;
64313;SDS011;50650;48.180;11.524;2022-11-09T01:00:35;3.03;;;1.33;;
64313;SDS011;50650;48.180;11.524;2022-11-09T01:03:02;4.60;;;1.55;;
64313;SDS011;50650;48.180;11.524;2022-11-09T01:05:28;4.53;;;1.73;;
64313;SDS011;50650;48.180;11.524;2022-11-09T01:07:55;3.28;;;1.23;;
64313;SDS011;50650;48.180;11.524;2022-11-09T01:10:22;5.55;;;1.60;;
64313;SDS011;50650;48.180;11.524;2022-11-09T01:12:48;3.55;;;1.42;;
64313;SDS011;50650;48.180;11.524;2022-11-09T01:15:16;3.45;;;1.55;;
64313;SDS011;50650;48.180;11.524;2022-11-09T01:17:43;3.08;;;1.27;;
64313;SDS011;50650;48.180;11.524;2022-11-09T01:20:10;3.83;;;1.52;;
64313;SDS011;50650;48.180;11.524;2022-11-09T01:22:37;3.00;;;1.60;;
64313;SDS011;50650;48.180;11.524;2022-11-09T01:25:03;3.47;;;1.52;;
64313;SDS011;50650;48.180;11.524;2022-11-09T01:27:31;3.20;;;1.70;;
64313;SDS011;50650;48.180;11.524;2022-11-09T01:29:57;3.10;;;1.60;;
64313;SDS011;50650;48.180;11.524;2022-11-09T01:32:25;3.35;;;1.70;;
64313;SDS011;50650;48.180;11.524;2022-11-09T01:34:52;3.15;;;1.10;;
64313;SDS011;50650;48.180;11.524;2022-11-09T01:37:18;3.15;;;1.83;;
64313;SDS011;50650;48.180;11.524;2022-11-09T01:39:45;2.60;;;1.15;;
64313;SDS011;50650;48.180;11.524;2022-11-09T01:42:11;2.65;;;1.40;;
64313;SDS011;50650;48.180;11.524;2022-11-09T01:44:38;3.00;;;1.50;;
64313;SDS011;50650;48.180;11.524;2022-11-09T01:47:05;3.50;;;1.33;;
64313;SDS011;50650;48.180;11.524;2022-11-09T01:49:36;1.75;;;1.20;;
64313;SDS011;50650;48.180;11.524;2022-11-09T01:52:06;3.92;;;1.73;;
64313;SDS011;50650;48.180;11.524;2022-11-09T01:54:35;1.30;;;0.98;;
64313;SDS011;50650;48.180;11.524;2022-11-09T01:57:04;3.55;;;1.52;;
64313;SDS011;50650;48.180;11.524;2022-11-09T01:59:35;2.30;;;1.38;;
64313;SDS011;50650;48.180;11.524;2022-11-09T02:02:04;2.47;;;1.42;;
64313;SDS011;50650;48.180;11.524;2022-11-09T02:04:32;3.10;;;1.40;;
64313;SDS011;50650;48.180;11.524;2022-11-09T02:07:01;1.90;;;1.10;;
64313;SDS011;50650;48.180;11.524;2022-11-09T02:09:30;2.25;;;1.23;;
64313;SDS011;50650;48.180;11.524;2022-11-09T02:12:01;2.60;;;1.40;;
64313;SDS011;50650;48.180;11.524;2022-11-09T02:14:28;4.60;;;1.45;;
64313;SDS011;50650;48.180;11.524;2022-11-09T02:16:55;2.55;;;1.30;;
64313;SDS011;50650;48.180;11.524;2022-11-09T02:19:21;3.22;;;1.30;;
64313;SDS011;50650;48.180;11.524;2022-11-09T02:21:49;3.90;;;1.38;;
64313;SDS011;50650;48.180;11.524;2022-11-09T02:24:16;3.25;;;1.20;;
64313;SDS011;50650;48.180;11.524;2022-11-09T02:26:43;4.10;;;1.65;;
64313;SDS011;50650;48.180;11.524;2022-11-09T02:29:11;2.17;;;1.15;;
64313;SDS011;50650;48.180;11.524;2022-11-09T02:31:40;3.03;;;1.10;;
64313;SDS011;50650;48.180;11.524;2022-11-09T02:34:09;2.25;;;1.40;;
64313;SDS011;50650;48.180;11.524;2022-11-09T02:36:38;3.40;;;1.15;;
64313;SDS011;50650;48.180;11.524;2022-11-09T02:39:06;2.92;;;1.35;;
64313;SDS011;50650;48.180;11.524;2022-11-09T02:41:41;2.20;;;1.20;;
64313;SDS011;50650;48.180;11.524;2022-11-09T02:44:08;1.92;;;1.17;;
64313;SDS011;50650;48.180;11.524;2022-11-09T02:46:35;2.35;;;1.25;;
64313;SDS011;50650;48.180;11.524;2022-11-09T02:49:02;4.18;;;1.67;;
64313;SDS011;50650;48.180;11.524;2022-11-09T02:51:29;2.83;;;1.30;;
64313;SDS011;50650;48.180;11.524;2022-11-09T02:53:56;6.43;;;1.25;;
64313;SDS011;50650;48.180;11.524;2022-11-09T02:56:23;3.22;;;1.20;;
64313;SDS011;50650;48.180;11.524;2022-11-09T02:58:50;3.53;;;1.30;;
64313;SDS011;50650;48.180;11.524;2022-11-09T03:01:16;2.95;;;1.50;;
64313;SDS011;50650;48.180;11.524;2022-11-09T03:03:43;2.65;;;1.45;;
64313;SDS011;50650;48.180;11.524;2022-11-09T03:06:10;1.60;;;0.93;;
64313;SDS011;50650;48.180;11.524;2022-11-09T03:08:36;4.70;;;1.38;;
64313;SDS011;50650;48.180;11.524;2022-11-09T03:11:03;2.75;;;1.40;;
64313;SDS011;50650;48.180;11.524;2022-11-09T03:13:31;2.08;;;1.05;;
64313;SDS011;50650;48.180;11.524;2022-11-09T03:16:02;3.67;;;1.30;;
64313;SDS011;50650;48.180;11.524;2022-11-09T03:18:29;3.55;;;1.70;;
64313;SDS011;50650;48.180;11.524;2022-11-09T03:20:59;2.92;;;1.50;;
64313;SDS011;50650;48.180;11.524;2022-11-09T03:23:26;2.60;;;1.73;;
64313;SDS011;50650;48.180;11.524;2022-11-09T03:25:53;2.80;;;1.60;;
64313;SDS011;50650;48.180;11.524;2022-11-09T03:28:19;2.53;;;1.50;;
64313;SDS011;50650;48.180;11.524;2022-11-09T03:30:47;3.67;;;1.77;;
64313;SDS011;50650;48.180;11.524;2022-11-09T03:33:14;4.20;;;1.55;;
64313;SDS011;50650;48.180;11.524;2022-11-09T03:35:40;2.42;;;1.30;;
64313;SDS011;50650;48.180;11.524;2022-11-09T03:38:09;4.60;;;1.70;;
64313;SDS011;50650;48.180;11.524;2022-11-09T03:40:35;3.35;;;1.60;;
64313;SDS011;50650;48.180;11.524;2022-11-09T03:43:02;5.20;;;1.90;;
64313;SDS011;50650;48.180;11.524;2022-11-09T03:45:28;4.65;;;1.70;;
64313;SDS011;50650;48.180;11.524;2022-11-09T03:47:56;2.75;;;1.30;;
64313;SDS011;50650;48.180;11.524;2022-11-09T03:50:24;2.30;;;1.40;;
64313;SDS011;50650;48.180;11.524;2022-11-09T03:52:51;3.63;;;1.48;;
64313;SDS011;50650;48.180;11.524;2022-11-09T03:55:18;2.97;;;1.38;;
64313;SDS011;50650;48.180;11.524;2022-11-09T03:57:45;4.20;;;1.63;;
64313;SDS011;50650;48.180;11.524;2022-11-09T04:00:12;2.60;;;1.67;;
64313;SDS011;50650;48.180;11.524;2022-11-09T04:02:43;2.33;;;1.40;;
64313;SDS011;50650;48.180;11.524;2022-11-09T04:05:11;3.20;;;1.40;;
64313;SDS011;50650;48.180;11.524;2022-11-09T04:07:38;2.60;;;1.50;;
64313;SDS011;50650;48.180;11.524;2022-11-09T04:10:05;2.95;;;1.20;;
64313;SDS011;50650;48.180;11.524;2022-11-09T04:12:32;2.42;;;1.50;;
64313;SDS011;50650;48.180;11.524;2022-11-09T04:14:59;2.80;;;1.25;;
64313;SDS011;50650;48.180;11.524;2022-11-09T04:17:25;1.67;;;1.10;;
64313;SDS011;50650;48.180;11.524;2022-11-09T04:19:52;5.07;;;1.38;;
64313;SDS011;50650;48.180;11.524;2022-11-09T04:22:19;3.17;;;1.48;;
64313;SDS011;50650;48.180;11.524;2022-11-09T04:24:46;2.92;;;1.42;;
64313;SDS011;50650;48.180;11.524;2022-11-09T04:27:12;2.25;;;1.45;;
64313;SDS011;50650;48.180;11.524;2022-11-09T04:29:39;4.20;;;1.20;;
64313;SDS011;50650;48.180;11.524;2022-11-09T04:32:06;3.25;;;1.40;;
64313;SDS011;50650;48.180;11.524;2022-11-09T04:34:32;1.95;;;1.25;;
64313;SDS011;50650;48.180;11.524;2022-11-09T04:36:59;2.97;;;1.15;;
64313;SDS011;50650;48.180;11.524;2022-11-09T04:39:26;2.08;;;1.20;;
64313;SDS011;50650;48.180;11.524;2022-11-09T04:41:53;2.72;;;1.10;;
64313;SDS011;50650;48.180;11.524;2022-11-09T04:44:19;2.47;;;0.90;;
64313;SDS011;50650;48.180;11.524;2022-11-09T04:46:46;2.08;;;1.25;;
64313;SDS011;50650;48.180;11.524;2022-11-09T04:49:12;2.47;;;1.27;;
64313;SDS011;50650;48.180;11.524;2022-11-09T04:51:39;2.30;;;1.13;;
64313;SDS011;50650;48.180;11.524;2022-11-09T04:54:05;1.90;;;1.00;;
64313;SDS011;50650;48.180;11.524;2022-11-09T04:56:33;2.05;;;1.15;;
64313;SDS011;50650;48.180;11.524;2022-11-09T04:59:00;1.77;;;1.00;;
64313;SDS011;50650;48.180;11.524;2022-11-09T05:01:26;1.38;;;0.75;;
64313;SDS011;50650;48.180;11.524;2022-11-09T05:03:53;1.10;;;0.73;;
64313;SDS011;50650;48.180;11.524;2022-11-09T05:06:19;2.10;;;1.10;;
64313;SDS011;50650;48.180;11.524;2022-11-09T05:08:58;3.05;;;1.30;;
64313;SDS011;50650;48.180;11.524;2022-11-09T05:11:25;2.28;;;1.20;;
64313;SDS011;50650;48.180;11.524;2022-11-09T05:13:53;3.22;;;1.40;;
64313;SDS011;50650;48.180;11.524;2022-11-09T05:16:19;2.92;;;1.13;;
64313;SDS011;50650;48.180;11.524;2022-11-09T05:18:47;3.63;;;0.80;;
64313;SDS011;50650;48.180;11.524;2022-11-09T05:21:13;4.63;;;1.20;;
64313;SDS011;50650;48.180;11.524;2022-11-09T05:23:40;1.65;;;1.10;;
64313;SDS011;50650;48.180;11.524;2022-11-09T05:26:24;2.25;;;1.30;;
64313;SDS011;50650;48.180;11.524;2022-11-09T05:28:55;2.80;;;1.30;;
64313;SDS011;50650;48.180;11.524;2022-11-09T05:31:23;2.75;;;1.10;;
64313;SDS011;50650;48.180;11.524;2022-11-09T05:33:50;3.25;;;1.33;;
64313;SDS011;50650;48.180;11.524;2022-11-09T05:36:17;2.03;;;0.95;;
64313;SDS011;50650;48.180;11.524;2022-11-09T05:38:44;1.98;;;0.88;;
64313;SDS011;50650;48.180;11.524;2022-11-09T05:41:11;1.52;;;0.80;;
64313;SDS011;50650;48.180;11.524;2022-11-09T05:43:37;2.40;;;0.88;;
64313;SDS011;50650;48.180;11.524;2022-11-09T05:46:05;1.83;;;1.20;;
64313;SDS011;50650;48.180;11.524;2022-11-09T05:48:32;3.53;;;1.58;;
64313;SDS011;50650;48.180;11.524;2022-11-09T05:50:59;3.13;;;1.40;;
64313;SDS011;50650;48.180;11.524;2022-11-09T05:53:27;2.40;;;1.48;;
64313;SDS011;50650;48.180;11.524;2022-11-09T05:55:54;2.78;;;1.50;;
64313;SDS011;50650;48.180;11.524;2022-11-09T05:58:20;4.28;;;2.15;;
64313;SDS011;50650;48.180;11.524;2022-11-09T06:00:47;3.85;;;1.60;;
64313;SDS011;50650;48.180;11.524;2022-11-09T06:03:15;5.85;;;1.30;;
64313;SDS011;50650;48.180;11.524;2022-11-09T06:05:42;4.72;;;1.40;;
64313;SDS011;50650;48.180;11.524;2022-11-09T06:08:09;2.63;;;1.40;;
64313;SDS011;50650;48.180;11.524;2022-11-09T06:10:37;3.20;;;1.90;;
64313;SDS011;50650;48.180;11.524;2022-11-09T06:13:03;2.45;;;1.25;;
64313;SDS011;50650;48.180;11.524;2022-11-09T06:15:30;3.40;;;1.85;;
64313;SDS011;50650;48.180;11.524;2022-11-09T06:17:57;12.30;;;2.83;;
64313;SDS011;50650;48.180;11.524;2022-11-09T06:20:25;5.43;;;2.88;;
64313;SDS011;50650;48.180;11.524;2022-11-09T06:22:52;11.48;;;3.22;;
64313;SDS011;50650;48.180;11.524;2022-11-09T06:25:19;9.52;;;2.05;;
64313;SDS011;50650;48.180;11.524;2022-11-09T06:27:46;15.95;;;2.63;;
64313;SDS011;50650;48.180;11.524;2022-11-09T06:30:12;10.95;;;2.10;;
64313;SDS011;50650;48.180;11.524;2022-11-09T06:32:39;6.88;;;2.10;;
64313;SDS011;50650;48.180;11.524;2022-11-09T06:35:06;10.50;;;2.60;;
64313;SDS011;50650;48.180;11.524;2022-11-09T06:37:34;9.10;;;3.08;;
64313;SDS011;50650;48.180;11.524;2022-11-09T06:40:00;15.65;;;2.50;;
64313;SDS011;50650;48.180;11.524;2022-11-09T06:42:27;8.52;;;2.40;;
64313;SDS011;50650;48.180;11.524;2022-11-09T06:44:53;6.68;;;2.58;;
64313;SDS011;50650;48.180;11.524;2022-11-09T06:47:20;12.25;;;2.45;;
64313;SDS011;50650;48.180;11.524;2022-11-09T06:49:46;14.48;;;2.33;;
64313;SDS011;50650;48.180;11.524;2022-11-09T06:52:13;8.60;;;2.58;;
64313;SDS011;50650;48.180;11.524;2022-11-09T06:54:41;11.45;;;3.10;;
64313;SDS011;50650;48.180;11.524;2022-11-09T06:57:07;7.00;;;2.25;;
64313;SDS011;50650;48.180;11.524;2022-11-09T06:59:34;3.25;;;1.70;;
64313;SDS011;50650;48.180;11.524;2022-11-09T07:02:00;3.78;;;1.50;;
64313;SDS011;50650;48.180;11.524;2022-11-09T07:04:27;7.10;;;1.98;;
64313;SDS011;50650;48.180;11.524;2022-11-09T07:06:53;4.32;;;1.90;;
64313;SDS011;50650;48.180;11.524;2022-11-09T07:09:20;4.25;;;1.67;;
64313;SDS011;50650;48.180;11.524;2022-11-09T07:11:48;2.95;;;1.38;;
64313;SDS011;50650;48.180;11.524;2022-11-09T07:14:15;3.22;;;1.55;;
64313;SDS011;50650;48.180;11.524;2022-11-09T07:16:41;5.45;;;1.73;;
64313;SDS011;50650;48.180;11.524;2022-11-09T07:19:08;5.32;;;1.58;;
64313;SDS011;50650;48.180;11.524;2022-11-09T07:21:34;3.85;;;1.80;;
64313;SDS011;50650;48.180;11.524;2022-11-09T07:24:01;6.65;;;1.73;;
64313;SDS011;50650;48.180;11.524;2022-11-09T07:26:27;5.22;;;1.92;;
64313;SDS011;50650;48.180;11.524;2022-11-09T07:28:55;4.82;;;3.95;;
64313;SDS011;50650;48.180;11.524;2022-11-09T07:31:22;5.18;;;2.00;;
64313;SDS011;50650;48.180;11.524;2022-11-09T07:34:01;2.97;;;1.52;;
64313;SDS011;50650;48.180;11.524;2022-11-09T07:36:29;5.72;;;1.63;;
64313;SDS011;50650;48.180;11.524;2022-11-09T07:38:55;3.03;;;1.40;;
64313;SDS011;50650;48.180;11.524;2022-11-09T07:41:22;6.10;;;1.50;;
64313;SDS011;50650;48.180;11.524;2022-11-09T07:43:49;3.63;;;1.40;;
64313;SDS011;50650;48.180;11.524;2022-11-09T07:46:17;4.13;;;1.50;;
64313;SDS011;50650;48.180;11.524;2022-11-09T07:48:44;6.72;;;1.55;;
64313;SDS011;50650;48.180;11.524;2022-11-09T07:51:10;3.75;;;1.50;;
64313;SDS011;50650;48.180;11.524;2022-11-09T07:53:37;6.40;;;1.50;;
64313;SDS011;50650;48.180;11.524;2022-11-09T07:56:04;5.68;;;1.20;;
64313;SDS011;50650;48.180;11.524;2022-11-09T07:58:30;2.97;;;1.30;;
64313;SDS011;50650;48.180;11.524;2022-11-09T08:00:58;6.00;;;1.55;;
64313;SDS011;50650;48.180;11.524;2022-11-09T08:03:26;5.25;;;1.30;;
64313;SDS011;50650;48.180;11.524;2022-11-09T08:05:54;2.15;;;1.30;;
64313;SDS011;50650;48.180;11.524;2022-11-09T08:08:21;6.60;;;1.35;;
64313;SDS011;50650;48.180;11.524;2022-11-09T08:10:48;1.90;;;1.35;;
64313;SDS011;50650;48.180;11.524;2022-11-09T08:13:17;4.00;;;1.38;;
64313;SDS011;50650;48.180;11.524;2022-11-09T08:15:44;4.63;;;1.50;;
64313;SDS011;50650;48.180;11.524;2022-11-09T08:18:12;3.63;;;1.50;;
64313;SDS011;50650;48.180;11.524;2022-11-09T08:20:41;3.45;;;1.27;;
64313;SDS011;50650;48.180;11.524;2022-11-09T08:23:09;4.97;;;1.45;;
64313;SDS011;50650;48.180;11.524;2022-11-09T08:25:36;3.47;;;1.30;;
64313;SDS011;50650;48.180;11.524;2022-11-09T08:28:03;2.25;;;0.93;;
64313;SDS011;50650;48.180;11.524;2022-11-09T08:30:29;2.65;;;1.10;;
64313;SDS011;50650;48.180;11.524;2022-11-09T08:32:57;3.33;;;1.40;;
64313;SDS011;50650;48.180;11.524;2022-11-09T08:35:24;5.60;;;1.30;;
64313;SDS011;50650;48.180;11.524;2022-11-09T08:37:52;6.60;;;1.30;;
64313;SDS011;50650;48.180;11.524;2022-11-09T08:40:20;2.25;;;0.85;;
64313;SDS011;50650;48.180;11.524;2022-11-09T08:42:47;3.33;;;0.93;;
64313;SDS011;50650;48.180;11.524;2022-11-09T08:45:14;3.58;;;1.05;;
64313;SDS011;50650;48.180;11.524;2022-11-09T08:47:41;6.95;;;1.30;;
64313;SDS011;50650;48.180;11.524;2022-11-09T08:50:08;3.15;;;0.90;;
64313;SDS011;50650;48.180;11.524;2022-11-09T08:52:35;2.55;;;1.05;;
64313;SDS011;50650;48.180;11.524;2022-11-09T08:55:04;3.95;;;1.00;;
64313;SDS011;50650;48.180;11.524;2022-11-09T08:57:31;7.70;;;1.65;;
64313;SDS011;50650;48.180;11.524;2022-11-09T08:59:58;3.75;;;1.35;;
64313;SDS011;50650;48.180;11.524;2022-11-09T09:02:25;3.30;;;1.17;;
64313;SDS011;50650;48.180;11.524;2022-11-09T09:04:51;4.88;;;1.55;;
64313;SDS011;50650;48.180;11.524;2022-11-09T09:07:18;6.25;;;1.10;;
64313;SDS011;50650;48.180;11.524;2022-11-09T09:09:44;2.47;;;1.40;;
64313;SDS011;50650;48.180;11.524;2022-11-09T09:12:12;3.80;;;0.90;;
64313;SDS011;50650;48.180;11.524;2022-11-09T09:14:39;4.25;;;0.90;;
64313;SDS011;50650;48.180;11.524;2022-11-09T09:17:05;2.80;;;1.10;;
64313;SDS011;50650;48.180;11.524;2022-11-09T09:19:32;5.50;;;1.15;;
64313;SDS011;50650;48.180;11.524;2022-11-09T09:21:58;2.55;;;1.30;;
64313;SDS011;50650;48.180;11.524;2022-11-09T09:24:25;5.85;;;1.17;;
64313;SDS011;50650;48.180;11.524;2022-11-09T09:26:51;4.10;;;1.00;;
64313;SDS011;50650;48.180;11.524;2022-11-09T09:29:19;5.75;;;1.90;;
64313;SDS011;50650;48.180;11.524;2022-11-09T09:31:46;3.45;;;1.10;;
64313;SDS011;50650;48.180;11.524;2022-11-09T09:34:12;6.38;;;1.00;;
64313;SDS011;50650;48.180;11.524;2022-11-09T09:36:39;2.67;;;1.02;;
64313;SDS011;50650;48.180;11.524;2022-11-09T09:39:05;8.80;;;1.10;;
64313;SDS011;50650;48.180;11.524;2022-11-09T09:41:34;7.40;;;1.30;;
64313;SDS011;50650;48.180;11.524;2022-11-09T09:44:05;9.07;;;1.00;;
64313;SDS011;50650;48.180;11.524;2022-11-09T09:46:41;2.33;;;0.85;;
64313;SDS011;50650;48.180;11.524;2022-11-09T09:49:10;5.00;;;1.30;;
64313;SDS011;50650;48.180;11.524;2022-11-09T09:51:40;6.65;;;0.95;;
64313;SDS011;50650;48.180;11.524;2022-11-09T09:54:10;2.67;;;1.05;;
64313;SDS011;50650;48.180;11.524;2022-11-09T09:56:41;2.63;;;1.20;;
64313;SDS011;50650;48.180;11.524;2022-11-09T09:59:10;5.00;;;1.33;;
64313;SDS011;50650;48.180;11.524;2022-11-09T10:01:41;6.47;;;1.20;;
64313;SDS011;50650;48.180;11.524;2022-11-09T10:04:13;3.78;;;1.00;;
64313;SDS011;50650;48.180;11.524;2022-11-09T10:06:45;9.80;;;1.30;;
64313;SDS011;50650;48.180;11.524;2022-11-09T10:09:25;1.90;;;1.10;;
64313;SDS011;50650;48.180;11.524;2022-11-09T10:12:01;2.20;;;1.00;;
64313;SDS011;50650;48.180;11.524;2022-11-09T10:14:45;2.92;;;1.13;;
64313;SDS011;50650;48.180;11.524;2022-11-09T10:17:21;2.22;;;1.17;;
64313;SDS011;50650;48.180;11.524;2022-11-09T10:19:56;1.35;;;0.70;;
64313;SDS011;50650;48.180;11.524;2022-11-09T10:22:30;1.58;;;0.90;;
64313;SDS011;50650;48.180;11.524;2022-11-09T10:25:05;5.07;;;0.90;;
64313;SDS011;50650;48.180;11.524;2022-11-09T10:27:38;1.30;;;0.88;;
64313;SDS011;50650;48.180;11.524;2022-11-09T10:30:09;2.40;;;0.90;;
64313;SDS011;50650;48.180;11.524;2022-11-09T10:32:39;2.03;;;1.00;;
64313;SDS011;50650;48.180;11.524;2022-11-09T10:35:12;3.45;;;0.80;;
64313;SDS011;50650;48.180;11.524;2022-11-09T10:37:43;1.40;;;0.90;;
64313;SDS011;50650;48.180;11.524;2022-11-09T10:40:12;4.78;;;0.90;;
64313;SDS011;50650;48.180;11.524;2022-11-09T10:42:43;1.77;;;1.00;;
64313;SDS011;50650;48.180;11.524;2022-11-09T10:45:11;2.95;;;0.88;;
64313;SDS011;50650;48.180;11.524;2022-11-09T10:47:49;1.63;;;0.90;;
64313;SDS011;50650;48.180;11.524;2022-11-09T10:50:20;2.47;;;0.77;;
64313;SDS011;50650;48.180;11.524;2022-11-09T10:52:50;4.57;;;0.70;;
64313;SDS011;50650;48.180;11.524;2022-11-09T10:55:21;1.92;;;0.75;;
64313;SDS011;50650;48.180;11.524;2022-11-09T10:57:51;5.47;;;1.20;;
64313;SDS011;50650;48.180;11.524;2022-11-09T11:00:19;2.05;;;1.20;;
64313;SDS011;50650;48.180;11.524;2022-11-09T11:02:46;3.30;;;1.20;;
64313;SDS011;50650;48.180;11.524;2022-11-09T11:05:23;4.43;;;1.30;;
64313;SDS011;50650;48.180;11.524;2022-11-09T11:07:54;3.05;;;1.02;;
64313;SDS011;50650;48.180;11.524;2022-11-09T11:10:20;2.10;;;1.08;;
64313;SDS011;50650;48.180;11.524;2022-11-09T11:12:51;2.30;;;1.20;;
64313;SDS011;50650;48.180;11.524;2022-11-09T11:15:23;2.10;;;1.08;;
64313;SDS011;50650;48.180;11.524;2022-11-09T11:17:53;3.35;;;1.08;;
64313;SDS011;50650;48.180;11.524;2022-11-09T11:20:27;2.20;;;0.90;;
64313;SDS011;50650;48.180;11.524;2022-11-09T11:23:06;3.00;;;0.93;;
64313;SDS011;50650;48.180;11.524;2022-11-09T11:25:37;1.70;;;0.80;;
64313;SDS011;50650;48.180;11.524;2022-11-09T11:28:17;1.35;;;0.70;;
64313;SDS011;50650;48.180;11.524;2022-11-09T11:30:46;2.33;;;0.98;;
64313;SDS011;50650;48.180;11.524;2022-11-09T11:33:15;2.85;;;1.15;;
64313;SDS011;50650;48.180;11.524;2022-11-09T11:35:44;1.55;;;0.80;;
64313;SDS011;50650;48.180;11.524;2022-11-09T11:38:16;2.92;;;1.00;;
64313;SDS011;50650;48.180;11.524;2022-11-09T11:40:52;2.53;;;1.15;;
64313;SDS011;50650;48.180;11.524;2022-11-09T11:43:28;2.90;;;1.23;;
64313;SDS011;50650;48.180;11.524;2022-11-09T11:46:02;2.13;;;0.90;;
64313;SDS011;50650;48.180;11.524;2022-11-09T11:48:46;1.27;;;0.75;;
64313;SDS011;50650;48.180;11.524;2022-11-09T11:51:24;3.03;;;0.90;;
64313;SDS011;50650;48.180;11.524;2022-11-09T11:53:59;2.10;;;0.90;;
64313;SDS011;50650;48.180;11.524;2022-11-09T11:56:31;2.78;;;0.75;;
64313;SDS011;50650;48.180;11.524;2022-11-09T11:59:20;3.13;;;1.55;;
64313;SDS011;50650;48.180;11.524;2022-11-09T12:02:02;7.75;;;1.20;;
64313;SDS011;50650;48.180;11.524;2022-11-09T12:04:44;1.30;;;0.90;;
64313;SDS011;50650;48.180;11.524;2022-11-09T12:07:25;3.13;;;0.90;;
64313;SDS011;50650;48.180;11.524;2022-11-09T12:09:59;5.13;;;1.00;;
64313;SDS011;50650;48.180;11.524;2022-11-09T12:12:34;2.65;;;0.80;;
64313;SDS011;50650;48.180;11.524;2022-11-09T12:17:58;2.30;;;0.85;;
64313;SDS011;50650;48.180;11.524;2022-11-09T12:20:32;2.75;;;1.10;;
64313;SDS011;50650;48.180;11.524;2022-11-09T12:23:07;2.05;;;0.70;;
64313;SDS011;50650;48.180;11.524;2022-11-09T12:25:42;4.50;;;0.90;;
64313;SDS011;50650;48.180;11.524;2022-11-09T12:28:15;3.35;;;0.70;;
64313;SDS011;50650;48.180;11.524;2022-11-09T12:30:56;4.60;;;1.02;;
64313;SDS011;50650;48.180;11.524;2022-11-09T12:33:31;3.38;;;0.90;;
64313;SDS011;50650;48.180;11.524;2022-11-09T12:36:07;2.40;;;0.90;;
64313;SDS011;50650;48.180;11.524;2022-11-09T12:38:38;3.00;;;1.00;;
64313;SDS011;50650;48.180;11.524;2022-11-09T12:41:08;2.40;;;0.88;;
64313;SDS011;50650;48.180;11.524;2022-11-09T12:43:38;3.13;;;0.95;;
64313;SDS011;50650;48.180;11.524;2022-11-09T12:46:08;1.90;;;0.90;;
64313;SDS011;50650;48.180;11.524;2022-11-09T12:48:35;2.75;;;0.70;;
64313;SDS011;50650;48.180;11.524;2022-11-09T12:51:02;2.58;;;1.55;;
64313;SDS011;50650;48.180;11.524;2022-11-09T12:53:32;1.83;;;1.00;;
64313;SDS011;50650;48.180;11.524;2022-11-09T12:56:01;3.60;;;1.45;;
64313;SDS011;50650;48.180;11.524;2022-11-09T12:58:31;2.00;;;0.90;;
64313;SDS011;50650;48.180;11.524;2022-11-09T13:00:59;2.05;;;1.08;;
64313;SDS011;50650;48.180;11.524;2022-11-09T13:03:27;3.00;;;1.13;;
64313;SDS011;50650;48.180;11.524;2022-11-09T13:06:08;4.47;;;1.50;;
64313;SDS011;50650;48.180;11.524;2022-11-09T13:08:44;3.97;;;1.00;;
64313;SDS011;50650;48.180;11.524;2022-11-09T13:11:24;5.80;;;1.17;;
64313;SDS011;50650;48.180;11.524;2022-11-09T13:13:53;2.95;;;1.00;;
64313;SDS011;50650;48.180;11.524;2022-11-09T13:16:57;4.45;;;1.17;;
64313;SDS011;50650;48.180;11.524;2022-11-09T13:25:37;4.20;;;1.08;;
64313;SDS011;50650;48.180;11.524;2022-11-09T13:28:39;2.80;;;1.27;;
64313;SDS011;50650;48.180;11.524;2022-11-09T13:34:58;3.65;;;1.00;;
64313;SDS011;50650;48.180;11.524;2022-11-09T13:37:35;2.17;;;1.15;;
64313;SDS011;50650;48.180;11.524;2022-11-09T13:43:21;4.15;;;1.10;;
64313;SDS011;50650;48.180;11.524;2022-11-09T13:45:50;2.60;;;1.30;;
64313;SDS011;50650;48.180;11.524;2022-11-09T13:48:22;3.65;;;1.35;;
64313;SDS011;50650;48.180;11.524;2022-11-09T13:50:56;7.30;;;1.20;;
64313;SDS011;50650;48.180;11.524;2022-11-09T13:53:27;2.05;;;1.00;;
64313;SDS011;50650;48.180;11.524;2022-11-09T13:55:57;5.57;;;1.00;;
64313;SDS011;50650;48.180;11.524;2022-11-09T13:58:26;2.20;;;1.13;;
64313;SDS011;50650;48.180;11.524;2022-11-09T14:00:55;2.72;;;1.17;;
64313;SDS011;50650;48.180;11.524;2022-11-09T14:03:22;3.15;;;1.20;;
64313;SDS011;50650;48.180;11.524;2022-11-09T14:05:50;7.97;;;1.27;;
64313;SDS011;50650;48.180;11.524;2022-11-09T14:08:19;5.65;;;1.40;;
64313;SDS011;50650;48.180;11.524;2022-11-09T14:10:51;2.75;;;1.20;;
64313;SDS011;50650;48.180;11.524;2022-11-09T14:13:43;4.32;;;1.20;;
64313;SDS011;50650;48.180;11.524;2022-11-09T14:16:17;5.38;;;1.20;;
64313;SDS011;50650;48.180;11.524;2022-11-09T14:21:26;2.05;;;1.42;;
64313;SDS011;50650;48.180;11.524;2022-11-09T14:24:00;4.35;;;1.33;;
64313;SDS011;50650;48.180;11.524;2022-11-09T14:26:27;3.13;;;1.80;;
64313;SDS011;50650;48.180;11.524;2022-11-09T14:28:55;3.33;;;1.60;;
64313;SDS011;50650;48.180;11.524;2022-11-09T14:31:22;2.92;;;1.30;;
64313;SDS011;50650;48.180;11.524;2022-11-09T14:33:59;2.90;;;1.40;;
64313;SDS011;50650;48.180;11.524;2022-11-09T14:36:29;5.60;;;1.50;;
64313;SDS011;50650;48.180;11.524;2022-11-09T14:38:56;2.50;;;1.60;;
64313;SDS011;50650;48.180;11.524;2022-11-09T14:41:24;4.50;;;1.33;;
64313;SDS011;50650;48.180;11.524;2022-11-09T14:43:52;2.88;;;1.42;;
64313;SDS011;50650;48.180;11.524;2022-11-09T14:46:21;2.08;;;1.30;;
64313;SDS011;50650;48.180;11.524;2022-11-09T14:48:49;3.15;;;1.55;;
64313;SDS011;50650;48.180;11.524;2022-11-09T14:51:16;4.18;;;1.48;;
64313;SDS011;50650;48.180;11.524;2022-11-09T14:53:43;3.65;;;1.60;;
64313;SDS011;50650;48.180;11.524;2022-11-09T14:56:10;3.67;;;1.50;;
64313;SDS011;50650;48.180;11.524;2022-11-09T14:58:39;3.60;;;1.38;;
64313;SDS011;50650;48.180;11.524;2022-11-09T15:01:08;5.07;;;1.55;;
64313;SDS011;50650;48.180;11.524;2022-11-09T15:03:41;3.15;;;1.50;;